Terminal Aerodrome Forecast
Issued by NWS

Current Version | Previous Version | Text Only | Print | Product List | Glossary On
Versions: 1 2 3 4 5 6 7 8 9 10 11 12 13 14 15 16 17 18
000
FTUS42 KMLB 011127
TAFISM
TAF
KISM 011127Z 0112/0212 00000KT P6SM SCT060
     FM011400 18006KT P6SM FEW015 SCT150 BKN250
     FM011900 20008KT P6SM VCTS SCT035CB SCT150
     FM020000 15006KT P6SM VCSH FEW040 BKN070 BKN250
     FM020300 VRB03KT P6SM SCT250=

USA.gov is the U.S. government's official web portal to all federal, state and local government web resources and services.